• Join FlightAware (Why Join?)
  • Login
  • US Flag 
11:37PM EST


 

Airport Tracker/Info


-or-


 

Live Flight TrackerFlight Track Log ✈ UAL341 ✈ 25-Apr-2013 ✈ KIAH - KMCO

Flight Track Log - Related Links

Times and Time Zones

All times are in EDT time to prevent confusion due to time zone crossing. See the UAL341 flight status page for this flight to view local times or setup timezone preferences in your user account.

Time Position Orientation Groundspeed Altitude Reporting Facility
EDT Latitude Longitude Course Direction KTS MPH feet Rate Location/Type
10:09AM 29.9764 -95.2983 98° East 148 170 1,200  Level Houston Center
10:10AM 29.9608 -95.2425 108° East 191 220 2,900 1,680 Climbing Houston Center
10:11AM 29.9492 -95.1997 107° East 209 241 4,000 1,620 Climbing Houston Center
10:11AM 29.9444 -95.1792 105° East 253 291 4,400 2,700 Climbing Houston Center
10:12AM 29.9386 -95.1122 96° East 275 316 6,800 3,300 Climbing Houston Center
10:12AM 29.9358 -95.0864 97° East 275 316 7,800 2,700 Climbing Houston Center
10:13AM 29.8926 -94.6031 98° East  Level FlightAware Approximate
10:13AM 29.9297 -95.0200 96° East 286 329 9,600  Level Houston Center
10:14AM 29.8754 -94.4568 98° East  Level FlightAware Approximate
10:14AM 29.9208 -94.9172 96° East 317 365 11,400  Level Houston Center
10:15AM 29.9086 -94.7933 96° East 382 440 13,100 1,980 Climbing Houston Center
10:16AM 29.8969 -94.6661 96° East 397 457 15,600 1,980 Climbing Houston Center
10:17AM 29.8833 -94.5333 97° East 413 475 17,200 1,620 Climbing Houston Center
10:18AM 29.8681 -94.3678 96° East 432 497 19,000 1,740 Climbing Houston Center
10:19AM 29.8636 -94.2250 92° East 451 519 20,900 1,680 Climbing Houston Center
10:20AM 29.8886 -94.0700 79° East 461 531 22,500 1,500 Climbing Houston Center
10:21AM 29.9144 -93.9242 78° East 467 537 24,000 1,260 Climbing Houston Center
10:22AM 29.9389 -93.7742 79° East 478 550 25,200 1,200 Climbing Houston Center
10:23AM 29.9636 -93.6219 79° East 487 560 26,500 960 Climbing Houston Center
10:24AM 29.9886 -93.4661 79° East 500 575 27,300 960 Climbing Houston Center
10:25AM 30.0203 -93.2744 79° East 515 593 28,500 1,080 Climbing Houston Center
10:26AM 30.0469 -93.1133 79° East 518 596 29,600 960 Climbing Houston Center
10:27AM 30.0731 -92.9506 79° East 522 601 30,600 960 Climbing Houston Center
10:28AM 30.0992 -92.7889 79° East 518 596 31,600 900 Climbing Houston Center
10:29AM 30.1256 -92.6231 80° East 526 605 32,500 1,020 Climbing Houston Center
10:30AM 30.1575 -92.4244 79° East 529 609 33,800 960 Climbing Houston Center
10:31AM 30.1822 -92.2589 80° East 527 606 34,600 840 Climbing Houston Center
10:32AM 30.2097 -92.0825 80° East 527 606 35,600 780 Climbing Houston Center
10:33AM 30.2358 -91.9167 80° East 528 608 36,300 600 Climbing Houston Center
10:34AM 30.2611 -91.7503 80° East 528 608 36,900 240 Climbing Houston Center
10:35AM 30.2900 -91.5586 80° East 527 606 36,900  Level Houston Center
10:36AM 30.3144 -91.3903 80° East 531 611 36,900  Level Houston Center
10:37AM 30.3408 -91.2228 80° East 531 611 36,900  Level Houston Center
10:39AM 30.3642 -91.0561 81° East 525 604 36,900  Level Houston Center
10:40AM 30.3892 -90.8881 80° East 530 610 36,900  Level Houston Center
10:41AM 30.4128 -90.7194 81° East 532 612 36,900  Level Houston Center
10:42AM 30.4422 -90.5156 80° East 535 616 37,000  Climbing Houston Center
10:43AM 30.4661 -90.3464 81° East 532 612 37,000  Level Houston Center
10:44AM 30.4894 -90.1742 81° East 537 618 37,000 -60 Level Houston Center
10:45AM 30.5139 -90.0042 80° East 533 613 36,900 -60 Descending Houston Center
10:46AM 30.5375 -89.8300 81° East 535 616 36,900  Level Houston Center
10:47AM 30.5614 -89.6553 81° East 537 618 36,900  Level Houston Center
10:48AM 30.5833 -89.4828 82° East 537 618 37,000  Climbing Houston Center
10:49AM 30.6064 -89.3103 81° East 539 620 37,000  Level Houston Center
10:50AM 30.6319 -89.1022 82° East 543 625 37,000  Level Houston Center
10:51AM 30.6522 -88.9333 82° East 537 618 37,000  Level Houston Center
10:52AM 30.6731 -88.7636 82° East 535 616 37,000  Level Houston Center
10:53AM 30.6947 -88.5939 82° East 536 617 37,000 -60 Level Houston Center
10:54AM 30.7167 -88.4194 82° East 535 616 36,900 -60 Descending Houston Center
10:55AM 30.7319 -88.2461 84° East 539 620 36,900  Level Houston Center
10:56AM 30.7456 -88.0389 86° East 538 619 37,000  Climbing Houston Center
10:57AM 30.7575 -87.8653 85° East 540 621 36,900  Descending Houston Center
10:58AM 30.7653 -87.7369 86° East 533 613 37,000  Climbing Jacksonville Center
10:59AM 30.7758 -87.5661 86° East 533 613 37,000  Level Jacksonville Center
11:00AM 30.7861 -87.3925 86° East 533 613 37,000  Level Jacksonville Center
11:01AM 30.7983 -87.2189 85° East 533 613 37,000  Level Jacksonville Center
11:02AM 30.8064 -87.0453 87° East 533 613 37,000  Level Jacksonville Center
11:03AM 30.8181 -86.8717 85° East 533 613 37,000  Level Jacksonville Center
11:04AM 30.8297 -86.7003 85° East 533 613 37,000 -60 Level Jacksonville Center
11:05AM 30.8242 -86.5308 92° East 533 613 36,900 -60 Descending Jacksonville Center
11:06AM 30.8186 -86.3542 92° East 538 619 36,900  Level Jacksonville Center
11:07AM 30.8150 -86.1822 91° East 538 619 36,900  Level Jacksonville Center
11:08AM 30.8108 -86.0078 92° East 538 619 36,900  Level Jacksonville Center
11:09AM 30.8089 -85.8336 91° East 538 619 37,000  Climbing Jacksonville Center
11:10AM 30.8044 -85.6594 92° East 533 613 37,000 -60 Level Jacksonville Center
11:11AM 30.8017 -85.4853 91° East 533 613 36,900 -60 Descending Jacksonville Center
11:12AM 30.7967 -85.3158 92° East 533 613 36,900  Level Jacksonville Center
11:13AM 30.7833 -85.1414 95° East 533 613 36,900  Level Jacksonville Center
11:14AM 30.7403 -84.9592 105° East 530 610 36,900  Level Jacksonville Center
11:15AM 30.6886 -84.7936 110° East 530 610 36,900 -540 Level Jacksonville Center
11:16AM 30.6367 -84.6308 110° East 535 616 35,900 -900 Descending Jacksonville Center
11:17AM 30.5989 -84.5022 109° East 540 621 35,200 -480 Descending Jacksonville Center
11:18AM 30.5739 -84.3161 99° East 516 594 35,000 -120 Descending Jacksonville Center
11:19AM 30.6006 -84.1453 80° East 516 594 35,000  Level Jacksonville Center
11:20AM 30.6189 -83.9764 83° East 516 594 35,000 -480 Level Jacksonville Center
11:21AM 30.6142 -83.7856 92° East 523 602 34,100 -960 Descending Jacksonville Center
11:22AM 30.6111 -83.6192 91° East 523 602 33,100 -960 Descending Jacksonville Center
11:23AM 30.6119 -83.4575 90° East 516 594 32,200 -1,260 Descending Jacksonville Center
11:24AM 30.6061 -83.2883 92° East 516 594 30,600 -2,400 Descending Jacksonville Center
11:25AM 30.5942 -83.1194 95° East 516 594 27,500 -1,860 Descending Jacksonville Center
11:26AM 30.5044 -82.9914 129° Southeast 493 567 26,900 -300 Descending Jacksonville Center
11:27AM 30.3958 -82.8806 139° Southeast 503 579 26,900 -60 Level Jacksonville Center
11:28AM 30.2853 -82.7700 139° Southeast 508 585 26,800 -540 Descending Jacksonville Center
11:29AM 30.1828 -82.6644 138° Southeast 508 585 25,900 -900 Descending Jacksonville Center
11:30AM 30.0803 -82.5636 140° Southeast 496 571 25,000 -540 Descending Jacksonville Center
11:31AM 29.9881 -82.4706 139° Southeast 491 565 24,900 -60 Descending Jacksonville Center
11:32AM 29.8669 -82.4111 157° South 469 540 24,900 -240 Level Jacksonville Center
11:33AM 29.7456 -82.3544 158° South 469 540 24,500 -720 Descending Jacksonville Center
11:34AM 29.6242 -82.2953 157° South 469 540 23,500 -1,140 Descending Jacksonville Center
11:35AM 29.5050 -82.2364 157° South 474 545 22,300 -1,800 Descending Jacksonville Center
11:36AM 29.3897 -82.1800 157° South 467 537 19,900 -2,340 Descending Jacksonville Center
11:37AM 29.2767 -82.1236 156° South 453 521 17,700 -2,340 Descending Jacksonville Center
11:38AM 29.1678 -82.0697 157° South 439 505 15,300 -2,400 Descending Jacksonville Center
11:39AM 29.0653 -82.0231 158° South 418 481 13,000 -1,800 Descending Jacksonville Center
11:40AM 28.9689 -81.9742 156° South 401 461 11,700 -1,020 Descending Jacksonville Center
11:41AM 28.8789 -81.9228 153° Southeast 366 421 11,000 -780 Descending Jacksonville Center
11:42AM 28.8322 -81.8450 124° Southeast 312 359 10,200 -1,020 Descending Jacksonville Center
11:43AM 28.7961 -81.7531 114° Southeast 304 350 9,000 -960 Descending Jacksonville Center
11:43AM 28.8000 -81.7333 77° East 298 343 9,000  Level Orlando TRACON
11:44AM 28.7667 -81.6500 115° Southeast 293 337 9,000 -360 Level Orlando TRACON
11:45AM 28.7333 -81.5833 120° Southeast 236 272 8,300 -1,020 Descending Orlando TRACON
11:46AM 28.7167 -81.5000 103° East 236 272 7,000 -1,320 Descending Orlando TRACON
11:47AM 28.6833 -81.4333 120° Southeast 235 270 5,700 -1,440 Descending Orlando TRACON
11:48AM 28.6500 -81.3833 127° Southeast 241 277 4,200 -1,500 Descending Orlando TRACON
11:49AM 28.5833 -81.3500 156° South 223 257 2,800 -1,440 Descending Orlando TRACON